Time;durP1;ratioP1;P1;durP2;ratioP2;P2;SDS_P1;SDS_P2;PMS_P1;PMS_P2;Temp;Humidity;BMP_temperature;BMP_pressure;BME280_temperature;BME280_humidity;BME280_pressure;Samples;Min_cycle;Max_cycle;Signal;HPM_P1;HPM_P2
2022/05/10 00:01:48;;;;;;;21.75;13.40;;;;;10.10;96953.00;;;;8366609;28;20640;-66
2022/05/10 00:05:51;;;;;;;23.90;14.15;;;;;10.10;96949.00;;;;8368267;28;20235;-66
2022/05/10 00:09:54;;;;;;;25.10;14.27;;;;;10.10;96942.00;;;;8357239;28;20229;-66
2022/05/10 00:13:59;;;;;;;25.10;13.37;;;;;10.00;96942.00;;;;8366004;28;20231;-66
2022/05/10 00:18:03;;;;;;;26.00;15.30;;;;;10.00;96932.00;;;;8362496;28;20223;-67
2022/05/10 00:22:06;;;;;;;25.60;14.67;;;;;9.90;96934.00;;;;8349195;28;20693;-66
2022/05/10 00:26:09;;;;;;;22.87;14.10;;;;;9.90;96929.00;;;;8352373;28;20681;-64
2022/05/10 00:30:14;;;;;;;23.45;13.57;;;;;9.90;96927.00;;;;8339719;28;20295;-68
2022/05/10 00:34:18;;;;;;;30.40;14.73;;;;;9.80;96928.00;;;;8347126;28;20221;-65
2022/05/10 00:38:25;;;;;;;28.23;15.00;;;;;9.70;96930.00;;;;8354305;28;20324;-64
2022/05/10 00:42:33;;;;;;;27.77;15.87;;;;;9.60;96919.00;;;;8350615;28;20234;-65
2022/05/10 00:46:42;;;;;;;21.73;13.20;;;;;9.70;96906.00;;;;8359368;28;20234;-65
2022/05/10 00:50:50;;;;;;;27.23;16.23;;;;;9.60;96916.00;;;;8348568;28;20273;-63
2022/05/10 00:54:59;;;;;;;27.33;15.90;;;;;9.60;96916.00;;;;8347989;28;20259;-65
2022/05/10 00:59:08;;;;;;;24.60;15.07;;;;;9.60;96905.00;;;;8351269;28;20665;-64
2022/05/10 01:03:22;;;;;;;21.50;12.90;;;;;9.50;96910.00;;;;8357140;28;20307;-66
2022/05/10 01:07:33;;;;;;;27.80;16.00;;;;;9.40;96910.00;;;;8359504;28;20386;-68
2022/05/10 01:11:43;;;;;;;27.13;14.43;;;;;9.40;96912.00;;;;8360326;28;20589;-66
2022/05/10 01:15:54;;;;;;;59.97;18.53;;;;;9.40;96913.00;;;;8361363;28;20574;-66
2022/05/10 01:19:59;;;;;;;26.60;14.87;;;;;9.30;96914.00;;;;8370792;28;20232;-65
2022/05/10 01:24:42;;;;;;;25.03;14.60;;;;;9.30;96908.00;;;;8358754;28;20342;-65
2022/05/10 01:28:52;;;;;;;40.10;17.57;;;;;9.20;96909.00;;;;8312432;28;20240;-65
2022/05/10 01:37:36;;;;;;;51.07;15.90;;;;;9.10;96912.00;;;;8356617;28;20648;-66
2022/05/10 01:41:47;;;;;;;34.47;17.07;;;;;9.20;96912.00;;;;8362379;28;20339;-66
2022/05/10 01:45:56;;;;;;;27.77;15.60;;;;;9.20;96916.00;;;;8352688;28;20262;-65
2022/05/10 01:50:04;;;;;;;28.03;15.70;;;;;9.20;96913.00;;;;8372567;28;20707;-67
2022/05/10 01:54:47;;;;;;;26.63;15.40;;;;;9.10;96916.00;;;;8359416;28;20319;-66
2022/05/10 01:58:51;;;;;;;23.70;14.13;;;;;9.10;96903.00;;;;8308920;28;20248;-66
2022/05/10 02:03:06;;;;;;;31.50;13.87;;;;;9.10;96896.00;;;;8340659;28;20854;-66
2022/05/10 02:07:14;;;;;;;40.57;16.17;;;;;9.00;96901.00;;;;8341843;28;20811;-66
2022/05/10 02:11:18;;;;;;;33.00;17.00;;;;;8.90;96900.00;;;;8344248;28;20228;-66
2022/05/10 02:15:27;;;;;;;34.33;17.63;;;;;8.90;96898.00;;;;8350049;28;20231;-66
2022/05/10 02:19:40;;;;;;;35.10;16.53;;;;;8.90;96898.00;;;;8343051;28;20247;-67
2022/05/10 02:23:50;;;;;;;29.90;15.40;;;;;8.80;96888.00;;;;8336463;28;20233;-66
2022/05/10 02:27:57;;;;;;;59.13;18.83;;;;;8.80;96893.00;;;;8344093;28;20247;-65
2022/05/10 02:36:26;;;;;;;28.00;14.70;;;;;8.70;96887.00;;;;8345127;28;20259;-66
2022/05/10 02:40:29;;;;;;;25.87;13.50;;;;;8.70;96890.00;;;;8339576;28;20238;-64
2022/05/10 02:44:33;;;;;;;25.17;15.40;;;;;8.70;96892.00;;;;8341724;28;20282;-63
2022/05/10 02:48:37;;;;;;;25.37;14.90;;;;;8.60;96884.00;;;;8346593;28;20793;-64
2022/05/10 02:52:42;;;;;;;38.53;15.90;;;;;8.60;96890.00;;;;8349414;28;20304;-64
2022/05/10 02:56:45;;;;;;;35.53;16.63;;;;;8.60;96886.00;;;;8345499;28;20228;-63
2022/05/10 03:00:51;;;;;;;27.73;14.67;;;;;8.50;96886.00;;;;8346922;28;20237;-64
2022/05/10 03:05:14;;;;;;;31.20;15.50;;;;;8.50;96891.00;;;;8326436;26;20224;-65
2022/05/10 03:09:19;;;;;;;33.57;16.93;;;;;8.40;96887.00;;;;8335439;28;20435;-66
2022/05/10 03:13:22;;;;;;;32.33;18.27;;;;;8.40;96884.00;;;;8339945;28;20235;-67
2022/05/10 03:17:25;;;;;;;27.30;16.30;;;;;8.40;96890.00;;;;8341230;28;20233;-64
2022/05/10 03:21:28;;;;;;;29.60;15.83;;;;;8.50;96889.00;;;;8338952;28;20243;-66
2022/05/10 03:25:33;;;;;;;31.00;16.10;;;;;8.50;96884.00;;;;8333673;28;20238;-65
2022/05/10 03:29:39;;;;;;;98.77;17.87;;;;;8.40;96877.00;;;;8339537;28;20240;-65
2022/05/10 03:33:42;;;;;;;30.73;15.43;;;;;8.40;96873.00;;;;8344330;28;20815;-64
2022/05/10 03:37:45;;;;;;;39.73;17.83;;;;;8.30;96876.00;;;;8342451;28;20228;-65
2022/05/10 03:41:50;;;;;;;46.83;17.53;;;;;8.30;96871.00;;;;8347997;28;20224;-64
2022/05/10 03:45:53;;;;;;;33.43;17.00;;;;;8.30;96883.00;;;;8336629;28;20220;-65
2022/05/10 03:49:56;;;;;;;30.90;17.07;;;;;8.30;96880.00;;;;8339654;28;20239;-66
2022/05/10 03:54:00;;;;;;;30.10;15.70;;;;;8.40;96889.00;;;;8344175;28;20259;-65
2022/05/10 03:58:05;;;;;;;23.77;14.03;;;;;8.40;96885.00;;;;8349898;28;20220;-65
2022/05/10 04:02:10;;;;;;;20.17;12.50;;;;;8.50;96876.00;;;;8351759;28;20323;-65
2022/05/10 04:06:14;;;;;;;29.23;15.77;;;;;8.50;96882.00;;;;8343871;28;21230;-67
2022/05/10 04:10:18;;;;;;;32.27;15.70;;;;;8.50;96873.00;;;;8332844;28;20231;-65
2022/05/10 04:14:24;;;;;;;35.07;17.33;;;;;8.50;96876.00;;;;8331228;28;20234;-65
2022/05/10 04:18:27;;;;;;;34.20;17.33;;;;;8.60;96875.00;;;;8338268;28;20236;-66
2022/05/10 04:22:31;;;;;;;31.37;16.50;;;;;8.70;96871.00;;;;8336503;28;20231;-67
2022/05/10 04:26:49;;;;;;;27.57;14.77;;;;;8.90;96874.00;;;;8340189;28;20929;-65
2022/05/10 04:30:57;;;;;;;24.47;14.90;;;;;9.00;96881.00;;;;8336857;28;20307;-67
2022/05/10 04:35:01;;;;;;;28.73;14.87;;;;;9.10;96872.00;;;;8338137;28;20610;-63
2022/05/10 04:39:05;;;;;;;26.73;14.47;;;;;9.30;96877.00;;;;8333329;28;20233;-65
2022/05/10 04:43:08;;;;;;;25.60;16.27;;;;;9.40;96877.00;;;;8338579;28;20237;-65
2022/05/10 04:47:13;;;;;;;21.53;13.60;;;;;9.60;96877.00;;;;8347436;28;20251;-66
2022/05/10 04:51:16;;;;;;;26.73;15.73;;;;;9.80;96889.00;;;;8344417;28;20688;-67
2022/05/10 04:55:20;;;;;;;22.57;13.93;;;;;10.00;96903.00;;;;8344154;28;20232;-66
2022/05/10 04:59:24;;;;;;;26.85;15.80;;;;;10.20;96898.00;;;;8343831;28;20232;-66
2022/05/10 05:03:29;;;;;;;30.13;16.70;;;;;10.50;96894.00;;;;8345138;28;20914;-67
2022/05/10 05:07:32;;;;;;;30.63;17.93;;;;;10.80;96895.00;;;;8347164;28;20228;-67
2022/05/10 05:11:35;;;;;;;30.30;18.80;;;;;11.00;96898.00;;;;8344025;28;20230;-66
2022/05/10 05:15:39;;;;;;;27.00;17.42;;;;;11.30;96907.00;;;;8342915;28;20347;-67
2022/05/10 05:19:43;;;;;;;28.73;17.00;;;;;11.50;96906.00;;;;8336812;28;20225;-68
2022/05/10 05:23:46;;;;;;;29.20;17.27;;;;;11.80;96910.00;;;;8340063;28;20622;-68
2022/05/10 05:27:50;;;;;;;24.30;15.93;;;;;12.10;96919.00;;;;8335289;28;20315;-66
2022/05/10 05:31:53;;;;;;;29.35;15.68;;;;;12.40;96917.00;;;;8337307;28;20224;-67
2022/05/10 05:35:58;;;;;;;25.07;16.87;;;;;12.70;96914.00;;;;8340181;28;20763;-66
2022/05/10 05:40:03;;;;;;;27.48;16.63;;;;;13.00;96915.00;;;;8337231;28;20233;-67
2022/05/10 05:44:06;;;;;;;22.77;16.52;;;;;13.50;96919.00;;;;8335354;28;20218;-66
2022/05/10 05:48:10;;;;;;;23.65;15.95;;;;;13.90;96923.00;;;;8332346;28;20718;-69
2022/05/10 05:52:17;;;;;;;23.42;16.05;;;;;14.30;96916.00;;;;8334749;28;20238;-70
2022/05/10 05:56:20;;;;;;;21.45;14.90;;;;;14.60;96919.00;;;;8335796;28;20237;-65
2022/05/10 06:00:26;;;;;;;20.67;15.60;;;;;14.80;96913.00;;;;8334651;28;20256;-70
2022/05/10 06:04:29;;;;;;;18.92;14.60;;;;;15.10;96914.00;;;;8332140;28;20753;-69
2022/05/10 06:08:34;;;;;;;19.33;14.77;;;;;15.50;96917.00;;;;8332992;28;20870;-70
2022/05/10 06:12:39;;;;;;;18.38;14.60;;;;;15.90;96905.00;;;;8336105;28;20223;-71
2022/05/10 06:16:43;;;;;;;19.35;14.27;;;;;16.20;96907.00;;;;8326306;28;20311;-74
2022/05/10 06:20:46;;;;;;;19.42;13.75;;;;;16.30;96912.00;;;;8341721;28;20274;-71
2022/05/10 06:24:51;;;;;;;16.60;13.07;;;;;16.40;96911.00;;;;8341057;28;20254;-71
2022/05/10 06:28:54;;;;;;;16.27;13.15;;;;;16.90;96912.00;;;;8339773;28;20236;-69
2022/05/10 06:32:59;;;;;;;14.57;12.20;;;;;17.40;96913.00;;;;8338932;28;20311;-67
2022/05/10 06:37:02;;;;;;;16.08;13.00;;;;;18.00;96908.00;;;;8327237;28;20308;-68
2022/05/10 06:41:07;;;;;;;17.48;12.70;;;;;18.70;96916.00;;;;8323600;28;20229;-72
2022/05/10 06:45:14;;;;;;;17.33;11.88;;;;;19.40;96917.00;;;;8327165;28;20727;-70
2022/05/10 06:49:18;;;;;;;16.25;11.15;;;;;20.00;96907.00;;;;8332150;28;20635;-74
2022/05/10 06:53:21;;;;;;;15.27;11.10;;;;;20.60;96910.00;;;;8337079;28;20300;-69
2022/05/10 06:57:26;;;;;;;12.88;10.60;;;;;21.20;96910.00;;;;8331202;28;20225;-69
2022/05/10 07:01:29;;;;;;;17.75;10.77;;;;;21.60;96903.00;;;;8331990;28;20237;-69
2022/05/10 07:05:32;;;;;;;11.23;10.00;;;;;22.20;96906.00;;;;8325756;28;20256;-71
2022/05/10 07:09:36;;;;;;;12.90;8.82;;;;;22.90;96906.00;;;;8331875;28;20236;-69
2022/05/10 07:13:40;;;;;;;10.55;9.18;;;;;23.50;96905.00;;;;8332580;28;20229;-68
2022/05/10 07:17:43;;;;;;;9.35;7.38;;;;;24.10;96916.00;;;;8337303;28;20255;-71
2022/05/10 07:21:47;;;;;;;9.80;7.85;;;;;24.50;96910.00;;;;8333052;28;20232;-74
2022/05/10 07:25:50;;;;;;;9.40;7.68;;;;;24.80;96907.00;;;;8336878;28;20271;-70
2022/05/10 07:29:55;;;;;;;9.65;7.30;;;;;25.10;96908.00;;;;8330532;28;20731;-69
2022/05/10 07:34:00;;;;;;;10.13;6.82;;;;;25.40;96905.00;;;;8343454;28;20221;-71
2022/05/10 07:38:03;;;;;;;7.18;6.43;;;;;25.70;96917.00;;;;8343103;28;20315;-70
2022/05/10 07:42:06;;;;;;;7.28;6.43;;;;;26.10;96918.00;;;;8345119;28;20312;-70
2022/05/10 07:46:18;;;;;;;10.70;7.18;;;;;26.50;96923.00;;;;8348336;28;20220;-71
2022/05/10 07:50:21;;;;;;;7.60;6.80;;;;;26.90;96920.00;;;;8343086;28;20228;-70
2022/05/10 07:54:25;;;;;;;7.57;6.78;;;;;26.90;96919.00;;;;8348224;28;20256;-70
2022/05/10 07:58:28;;;;;;;8.18;6.93;;;;;27.10;96918.00;;;;8340035;28;20232;-69
2022/05/10 08:02:33;;;;;;;7.45;6.75;;;;;27.50;96922.00;;;;8347345;28;20228;-69
2022/05/10 08:06:36;;;;;;;7.60;6.22;;;;;28.10;96925.00;;;;8338571;28;20232;-71
2022/05/10 08:10:40;;;;;;;24.58;6.88;;;;;28.50;96922.00;;;;8338122;28;20769;-69
2022/05/10 08:14:43;;;;;;;7.85;6.45;;;;;28.90;96921.00;;;;8349324;28;20236;-68
2022/05/10 08:18:49;;;;;;;6.93;5.97;;;;;29.20;96922.00;;;;8343418;28;20307;-71
2022/05/10 08:22:52;;;;;;;7.60;6.72;;;;;29.30;96929.00;;;;8337735;28;20224;-70
2022/05/10 08:26:56;;;;;;;8.55;7.13;;;;;29.30;96923.00;;;;8330368;28;21073;-69
2022/05/10 08:30:59;;;;;;;9.32;7.03;;;;;29.30;96923.00;;;;8346671;28;20324;-71
2022/05/10 08:35:05;;;;;;;8.45;6.95;;;;;29.70;96926.00;;;;8337651;28;20298;-68
2022/05/10 08:39:08;;;;;;;8.82;6.50;;;;;30.10;96920.00;;;;8348513;28;20251;-71
2022/05/10 08:43:21;;;;;;;7.70;6.90;;;;;30.00;96918.00;;;;8338735;28;20220;-71
2022/05/10 08:47:26;;;;;;;7.75;6.57;;;;;30.10;96921.00;;;;8345303;28;20251;-70
2022/05/10 08:51:31;;;;;;;9.60;6.93;;;;;30.50;96927.00;;;;8340107;28;20243;-69
2022/05/10 08:55:42;;;;;;;6.97;6.28;;;;;30.90;96928.00;;;;8336816;28;20334;-71
2022/05/10 09:00:00;;;;;;;9.00;6.28;;;;;31.20;96924.00;;;;8338395;28;20228;-71
2022/05/10 09:04:13;;;;;;;13.43;6.88;;;;;31.60;96921.00;;;;8329158;28;20224;-70
2022/05/10 09:08:27;;;;;;;6.97;5.80;;;;;32.10;96916.00;;;;8337340;28;20228;-71
2022/05/10 09:12:41;;;;;;;6.80;6.07;;;;;32.00;96911.00;;;;8326744;28;20335;-71
2022/05/10 09:16:44;;;;;;;6.20;5.60;;;;;31.70;96914.00;;;;8339914;28;20804;-70
2022/05/10 09:21:03;;;;;;;12.23;6.55;;;;;31.80;96911.00;;;;8334581;28;20244;-71
2022/05/10 09:25:19;;;;;;;5.88;5.30;;;;;32.00;96911.00;;;;8328539;28;20320;-71
2022/05/10 09:29:32;;;;;;;6.05;5.45;;;;;32.10;96907.00;;;;8333456;28;20275;-70
2022/05/10 09:37:59;;;;;;;5.80;5.18;;;;;32.60;96906.00;;;;8335645;28;20270;-72
2022/05/10 09:42:04;;;;;;;8.77;6.03;;;;;32.80;96901.00;;;;8321704;28;20231;-71
2022/05/10 09:46:10;;;;;;;7.30;5.40;;;;;32.90;96906.00;;;;8333349;28;20634;-70
2022/05/10 09:50:17;;;;;;;6.05;5.35;;;;;33.10;96901.00;;;;8344490;28;20308;-71
2022/05/10 09:54:25;;;;;;;6.97;5.82;;;;;33.30;96899.00;;;;8345058;28;20252;-71
2022/05/10 09:58:32;;;;;;;11.38;5.78;;;;;33.10;96906.00;;;;8328402;28;20239;-70
2022/05/10 10:02:37;;;;;;;6.45;4.95;;;;;32.10;96899.00;;;;8321841;28;20247;-71
2022/05/10 10:06:40;;;;;;;6.18;4.85;;;;;32.40;96895.00;;;;8333660;28;20593;-72
2022/05/10 10:10:43;;;;;;;6.90;4.63;;;;;32.60;96893.00;;;;8332365;28;20239;-71
2022/05/10 10:14:49;;;;;;;5.38;3.97;;;;;33.20;96894.00;;;;8335816;28;20558;-72
2022/05/10 10:18:56;;;;;;;6.80;4.50;;;;;33.60;96877.00;;;;8326498;28;20577;-71
2022/05/10 10:23:03;;;;;;;6.45;4.00;;;;;33.20;96886.00;;;;8333548;28;20767;-71
2022/05/10 10:27:11;;;;;;;4.70;4.22;;;;;33.40;96886.00;;;;8343038;28;20299;-71
2022/05/10 10:31:23;;;;;;;5.60;4.20;;;;;34.00;96879.00;;;;8337428;28;20224;-71
2022/05/10 10:35:34;;;;;;;4.43;4.03;;;;;34.40;96879.00;;;;8336142;28;20229;-72
2022/05/10 10:39:45;;;;;;;4.90;4.50;;;;;34.70;96871.00;;;;8327821;28;20225;-72
2022/05/10 10:44:04;;;;;;;8.75;4.68;;;;;34.60;96871.00;;;;8327506;28;20323;-71
2022/05/10 10:48:25;;;;;;;5.18;4.68;;;;;33.50;96871.00;;;;8340662;28;20220;-71
2022/05/10 10:52:31;;;;;;;4.72;4.35;;;;;33.70;96869.00;;;;8337204;28;20232;-69
2022/05/10 10:56:51;;;;;;;4.82;3.88;;;;;34.20;96865.00;;;;8327122;28;20483;-72
2022/05/10 11:00:59;;;;;;;4.28;3.88;;;;;34.90;96863.00;;;;8328455;28;20237;-73
2022/05/10 11:05:25;;;;;;;7.65;4.35;;;;;35.10;96864.00;;;;8329069;28;20236;-72
2022/05/10 11:09:46;;;;;;;4.20;3.90;;;;;35.30;96860.00;;;;8332898;28;20299;-72
2022/05/10 11:13:59;;;;;;;6.78;3.97;;;;;36.00;96851.00;;;;8329107;28;20296;-71
2022/05/10 11:18:28;;;;;;;4.32;3.90;;;;;35.60;96844.00;;;;8328075;28;20220;-71
2022/05/10 11:22:38;;;;;;;5.35;3.80;;;;;35.50;96844.00;;;;8332073;28;20274;-71
2022/05/10 11:27:01;;;;;;;4.75;4.00;;;;;35.80;96836.00;;;;8327656;28;20221;-71
2022/05/10 11:31:12;;;;;;;5.20;3.80;;;;;35.80;96831.00;;;;8339622;28;20840;-71
2022/05/10 11:35:24;;;;;;;7.10;4.10;;;;;36.10;96825.00;;;;8331399;28;20220;-71
2022/05/10 11:40:02;;;;;;;4.30;3.47;;;;;36.20;96821.00;;;;8327629;28;20228;-71
2022/05/10 11:44:43;;;;;;;4.45;4.07;;;;;36.70;96814.00;;;;8332656;28;20237;-71
2022/05/10 11:49:34;;;;;;;7.20;3.80;;;;;36.80;96815.00;;;;8313944;28;20319;-71
2022/05/10 11:53:52;;;;;;;4.50;3.75;;;;;37.00;96806.00;;;;8268775;28;20826;-72
2022/05/10 11:58:00;;;;;;;4.72;3.40;;;;;36.90;96812.00;;;;8329053;28;20226;-77
2022/05/10 12:02:04;;;;;;;6.97;3.90;;;;;36.90;96810.00;;;;8336336;28;20232;-68
2022/05/10 12:06:38;;;;;;;5.10;3.70;;;;;36.80;96800.00;;;;8334401;28;20216;-73
2022/05/10 12:10:43;;;;;;;5.43;3.83;;;;;36.90;96797.00;;;;8327633;28;20259;-79
2022/05/10 12:24:12;;;;;;;5.60;3.83;;;;;34.90;96777.00;;;;8340920;28;21045;-72
2022/05/10 12:28:35;;;;;;;3.88;3.65;;;;;34.20;96779.00;;;;8339159;28;20232;-71
2022/05/10 12:32:44;;;;;;;4.55;3.60;;;;;33.70;96788.00;;;;8344038;28;20969;-74
2022/05/10 12:36:47;;;;;;;4.22;3.83;;;;;33.10;96779.00;;;;8333420;28;21603;-67
2022/05/10 12:41:03;;;;;;;4.43;4.03;;;;;32.60;96770.00;;;;8343186;28;20327;-70
2022/05/10 12:45:23;;;;;;;4.07;3.72;;;;;32.50;96767.00;;;;8340343;28;20212;-72
2022/05/10 12:49:42;;;;;;;5.68;4.25;;;;;32.50;96769.00;;;;8342306;28;20312;-70
2022/05/10 12:53:54;;;;;;;9.13;4.20;;;;;32.10;96764.00;;;;8342737;28;20235;-68
2022/05/10 12:58:01;;;;;;;4.47;3.90;;;;;32.10;96755.00;;;;8340341;28;20235;-70
2022/05/10 13:02:06;;;;;;;4.25;3.95;;;;;31.80;96749.00;;;;8339037;28;20232;-72
2022/05/10 13:06:20;;;;;;;4.15;3.85;;;;;31.60;96741.00;;;;8342260;28;20229;-72
2022/05/10 13:10:24;;;;;;;3.92;3.45;;;;;31.70;96734.00;;;;8340076;28;20657;-69
2022/05/10 13:14:31;;;;;;;4.38;4.07;;;;;31.80;96741.00;;;;8342509;28;20234;-71
2022/05/10 13:18:34;;;;;;;4.53;4.13;;;;;31.80;96732.00;;;;8340848;28;20216;-73
2022/05/10 13:22:47;;;;;;;6.35;4.00;;;;;32.10;96716.00;;;;8345278;28;20596;-72
2022/05/10 13:26:52;;;;;;;4.03;3.70;;;;;32.90;96715.00;;;;8340059;28;20221;-73
2022/05/10 13:30:58;;;;;;;4.43;3.85;;;;;33.80;96706.00;;;;8335528;28;20779;-76
2022/05/10 13:35:07;;;;;;;5.90;3.90;;;;;34.00;96701.00;;;;8344431;28;20247;-70
2022/05/10 13:39:16;;;;;;;4.85;3.80;;;;;34.30;96700.00;;;;8340464;28;20258;-77
2022/05/10 13:43:21;;;;;;;4.78;3.50;;;;;34.60;96695.00;;;;8334408;28;20232;-68
2022/05/10 13:47:30;;;;;;;5.35;4.20;;;;;34.80;96685.00;;;;8340903;28;20250;-75
2022/05/10 13:51:38;;;;;;;4.75;3.03;;;;;34.90;96681.00;;;;8342562;28;20236;-73
2022/05/10 13:55:52;;;;;;;3.97;3.63;;;;;35.00;96683.00;;;;8341259;28;20245;-68
2022/05/10 13:59:58;;;;;;;3.50;3.20;;;;;35.10;96668.00;;;;8342858;28;20224;-71
2022/05/10 14:04:05;;;;;;;5.45;3.78;;;;;35.50;96673.00;;;;8346529;28;21029;-70
2022/05/10 14:08:14;;;;;;;4.75;3.60;;;;;35.60;96665.00;;;;8339962;28;20679;-77
2022/05/10 14:12:27;;;;;;;4.00;3.47;;;;;36.00;96656.00;;;;8345922;28;20236;-72
2022/05/10 14:16:39;;;;;;;4.05;3.53;;;;;36.10;96649.00;;;;8340651;28;20877;-71
2022/05/10 14:20:46;;;;;;;3.50;3.20;;;;;36.20;96650.00;;;;8345384;28;20239;-75
2022/05/10 14:24:50;;;;;;;3.45;3.10;;;;;36.30;96645.00;;;;8341366;28;20242;-74
2022/05/10 14:28:55;;;;;;;4.00;3.40;;;;;35.90;96642.00;;;;8335356;28;20236;-77
2022/05/10 14:32:58;;;;;;;3.55;3.30;;;;;35.70;96637.00;;;;8325947;28;20730;-68
2022/05/10 14:37:01;;;;;;;5.72;3.20;;;;;35.80;96633.00;;;;8334272;28;20228;-78
2022/05/10 14:41:05;;;;;;;4.93;3.13;;;;;35.90;96628.00;;;;8332790;28;20216;-70
2022/05/10 14:45:20;;;;;;;3.17;2.90;;;;;36.20;96630.00;;;;8344328;28;20222;-67
2022/05/10 14:49:39;;;;;;;3.25;2.95;;;;;36.20;96621.00;;;;8339967;28;20225;-70
2022/05/10 14:53:53;;;;;;;3.10;2.90;;;;;36.00;96627.00;;;;8324735;28;20341;-75
2022/05/10 14:57:58;;;;;;;3.70;3.40;;;;;35.90;96628.00;;;;8329576;28;20315;-82
2022/05/10 15:02:21;;;;;;;3.70;3.10;;;;;35.60;96617.00;;;;8333492;28;20232;-73
2022/05/10 15:06:24;;;;;;;4.13;3.15;;;;;35.00;96615.00;;;;8340799;28;20657;-71
2022/05/10 15:10:27;;;;;;;3.30;3.10;;;;;34.70;96609.00;;;;8341552;28;20311;-71
2022/05/10 15:14:32;;;;;;;2.92;2.72;;;;;34.70;96600.00;;;;8346946;28;20311;-71
2022/05/10 15:22:59;;;;;;;3.72;3.33;;;;;34.30;96595.00;;;;8338650;28;20251;-73
2022/05/10 15:27:04;;;;;;;3.20;3.00;;;;;33.90;96596.00;;;;8341623;28;20315;-72
2022/05/10 15:31:08;;;;;;;3.75;3.40;;;;;33.40;96596.00;;;;8337267;28;20235;-72
2022/05/10 15:35:12;;;;;;;3.97;3.20;;;;;33.00;96588.00;;;;8344262;28;20229;-75
2022/05/10 15:39:16;;;;;;;4.50;3.30;;;;;32.90;96587.00;;;;8346042;28;20315;-72
2022/05/10 15:43:19;;;;;;;3.30;3.10;;;;;32.30;96588.00;;;;8348454;28;20240;-70
2022/05/10 15:47:25;;;;;;;3.72;3.40;;;;;31.80;96581.00;;;;8346411;28;20220;-72
2022/05/10 15:51:34;;;;;;;3.35;3.08;;;;;31.50;96573.00;;;;8348293;28;20236;-70
2022/05/10 15:55:38;;;;;;;3.40;3.10;;;;;31.40;96579.00;;;;8349195;28;20228;-71
2022/05/10 15:59:41;;;;;;;3.88;3.58;;;;;31.00;96574.00;;;;8349377;28;20247;-71
2022/05/10 16:03:45;;;;;;;3.00;2.88;;;;;30.60;96581.00;;;;8342978;28;20327;-72
2022/05/10 16:07:51;;;;;;;4.15;3.10;;;;;30.40;96574.00;;;;8344096;28;20663;-74
2022/05/10 16:11:54;;;;;;;4.13;3.65;;;;;30.20;96580.00;;;;8340923;28;20241;-73
2022/05/10 16:15:57;;;;;;;3.50;3.28;;;;;29.90;96570.00;;;;8345201;28;22312;-73
2022/05/10 16:20:00;;;;;;;6.30;3.30;;;;;29.90;96566.00;;;;8339364;28;20225;-72
2022/05/10 16:24:06;;;;;;;3.60;3.40;;;;;29.60;96565.00;;;;8344079;28;20978;-71
2022/05/10 16:32:31;;;;;;;3.83;3.42;;;;;29.20;96561.00;;;;8341842;28;20236;-70
2022/05/10 16:36:34;;;;;;;5.30;3.47;;;;;29.20;96554.00;;;;8348877;28;20667;-74
2022/05/10 16:40:40;;;;;;;4.43;3.80;;;;;29.20;96560.00;;;;8345271;28;20244;-77
2022/05/10 16:44:44;;;;;;;4.65;3.85;;;;;29.00;96552.00;;;;8345413;28;20216;-72
2022/05/10 16:48:50;;;;;;;6.85;3.90;;;;;28.70;96551.00;;;;8337411;28;20308;-69
2022/05/10 16:52:53;;;;;;;4.38;4.07;;;;;28.50;96545.00;;;;8347819;28;20799;-69
2022/05/10 16:57:01;;;;;;;4.00;3.70;;;;;28.30;96546.00;;;;8344375;28;20238;-71
2022/05/10 17:01:04;;;;;;;4.95;3.63;;;;;28.10;96548.00;;;;8345128;28;20235;-73
2022/05/10 17:05:10;;;;;;;4.88;4.40;;;;;27.80;96540.00;;;;8348233;28;20221;-72
2022/05/10 17:09:13;;;;;;;8.07;4.68;;;;;27.40;96530.00;;;;8342824;28;20696;-74
2022/05/10 17:13:17;;;;;;;7.53;4.07;;;;;27.10;96537.00;;;;8344185;28;20239;-70
2022/05/10 17:17:21;;;;;;;5.63;4.18;;;;;26.80;96535.00;;;;8338885;28;20681;-71
2022/05/10 17:21:29;;;;;;;6.28;4.30;;;;;26.40;96531.00;;;;8331494;28;20229;-69
2022/05/10 17:25:32;;;;;;;4.93;4.10;;;;;26.00;96528.00;;;;8339240;28;20241;-72
2022/05/10 17:29:38;;;;;;;8.40;4.13;;;;;25.60;96525.00;;;;8331425;28;20267;-76
2022/05/10 17:33:41;;;;;;;4.57;4.18;;;;;25.00;96523.00;;;;8325704;28;20674;-74
2022/05/10 17:37:44;;;;;;;5.28;4.50;;;;;24.60;96522.00;;;;8344104;28;20228;-68
2022/05/10 17:41:49;;;;;;;5.93;4.57;;;;;24.30;96518.00;;;;8332840;28;20925;-72
2022/05/10 17:45:58;;;;;;;6.60;4.38;;;;;23.90;96521.00;;;;8330360;28;20294;-72
2022/05/10 17:50:01;;;;;;;5.55;4.97;;;;;23.70;96522.00;;;;8332159;28;20221;-78
2022/05/10 17:54:05;;;;;;;5.68;5.07;;;;;23.40;96518.00;;;;8334769;28;20238;-73
2022/05/10 17:58:08;;;;;;;5.70;4.70;;;;;23.10;96515.00;;;;8330960;28;20881;-77
2022/05/10 18:02:12;;;;;;;4.47;4.10;;;;;22.70;96514.00;;;;8333672;28;20243;-72
2022/05/10 18:06:17;;;;;;;8.95;4.88;;;;;22.40;96513.00;;;;8326430;28;20244;-74
2022/05/10 18:10:20;;;;;;;9.40;4.82;;;;;22.10;96518.00;;;;8322564;28;20247;-70
2022/05/10 18:14:23;;;;;;;8.45;4.78;;;;;21.80;96507.00;;;;8328444;28;20316;-71
2022/05/10 18:18:28;;;;;;;5.85;4.85;;;;;21.60;96509.00;;;;8335511;28;20315;-72
2022/05/10 18:22:32;;;;;;;6.93;4.78;;;;;21.30;96516.00;;;;8340097;28;20676;-73
2022/05/10 18:26:36;;;;;;;6.45;5.15;;;;;21.00;96507.00;;;;8328985;28;20244;-73
2022/05/10 18:30:39;;;;;;;6.88;5.07;;;;;20.80;96507.00;;;;8337155;28;20708;-72
2022/05/10 18:34:44;;;;;;;5.72;5.22;;;;;20.60;96513.00;;;;8339410;28;20729;-73
2022/05/10 18:38:47;;;;;;;6.20;5.20;;;;;20.30;96509.00;;;;8336793;28;20222;-72
2022/05/10 18:42:51;;;;;;;5.82;4.95;;;;;20.10;96515.00;;;;8340605;28;20242;-72
2022/05/10 18:46:54;;;;;;;5.80;5.30;;;;;20.00;96510.00;;;;8338979;28;20216;-71
2022/05/10 18:51:00;;;;;;;6.07;5.47;;;;;19.80;96510.00;;;;8338506;28;20339;-73
2022/05/10 18:55:04;;;;;;;5.75;5.25;;;;;19.60;96519.00;;;;8337052;28;20220;-70
2022/05/10 18:59:08;;;;;;;6.30;5.65;;;;;19.50;96513.00;;;;8340785;28;20264;-73
2022/05/10 19:03:12;;;;;;;6.95;5.75;;;;;19.40;96509.00;;;;8335877;28;20241;-73
2022/05/10 19:07:16;;;;;;;5.97;5.47;;;;;19.20;96521.00;;;;8337141;28;20229;-73
2022/05/10 19:11:21;;;;;;;6.75;5.78;;;;;19.10;96518.00;;;;8346116;28;20224;-72
2022/05/10 19:15:27;;;;;;;6.55;5.95;;;;;18.90;96518.00;;;;8335860;28;20223;-72
2022/05/10 19:19:31;;;;;;;7.15;5.85;;;;;18.80;96525.00;;;;8343712;28;20248;-73
2022/05/10 19:23:36;;;;;;;10.52;6.43;;;;;18.60;96523.00;;;;8347963;28;20259;-74
2022/05/10 19:27:43;;;;;;;7.97;6.57;;;;;18.40;96524.00;;;;8347189;28;20231;-72
2022/05/10 19:31:46;;;;;;;10.18;6.75;;;;;18.20;96534.00;;;;8346684;28;20327;-73
2022/05/10 19:35:50;;;;;;;7.72;6.93;;;;;18.00;96532.00;;;;8337543;28;20236;-71
2022/05/10 19:39:57;;;;;;;9.50;6.38;;;;;17.90;96534.00;;;;8337166;28;20303;-70
2022/05/10 19:44:00;;;;;;;11.27;6.90;;;;;17.70;96532.00;;;;8344493;28;20225;-70
2022/05/10 19:48:04;;;;;;;11.93;7.40;;;;;17.60;96542.00;;;;8343149;28;20745;-71
2022/05/10 19:52:07;;;;;;;9.18;7.43;;;;;17.40;96539.00;;;;8342984;28;20236;-72
2022/05/10 19:56:15;;;;;;;9.05;7.43;;;;;17.30;96534.00;;;;8345920;28;20605;-72
2022/05/10 20:00:20;;;;;;;8.65;7.65;;;;;17.10;96536.00;;;;8340685;28;20304;-73
2022/05/10 20:08:44;;;;;;;15.23;7.85;;;;;16.80;96527.00;;;;8348226;28;20723;-73
2022/05/10 20:12:49;;;;;;;8.18;6.85;;;;;16.70;96527.00;;;;8337749;28;20759;-71
2022/05/10 20:16:53;;;;;;;10.38;7.65;;;;;16.60;96530.00;;;;8341425;28;20234;-76
2022/05/10 20:20:57;;;;;;;11.25;7.72;;;;;16.50;96536.00;;;;8339097;28;20236;-75
2022/05/10 20:25:00;;;;;;;11.48;7.82;;;;;16.40;96535.00;;;;8347728;28;20263;-73
2022/05/10 20:29:05;;;;;;;13.57;8.07;;;;;16.30;96534.00;;;;8332671;28;20259;-75
2022/05/10 20:33:10;;;;;;;8.73;7.82;;;;;16.20;96540.00;;;;8339370;28;20312;-74
2022/05/10 20:37:13;;;;;;;10.57;7.97;;;;;16.00;96536.00;;;;8347859;28;20707;-74
2022/05/10 20:41:16;;;;;;;12.70;7.60;;;;;16.00;96542.00;;;;8338312;28;20320;-73
2022/05/10 20:45:22;;;;;;;10.75;8.77;;;;;15.90;96540.00;;;;8338879;28;20228;-74
2022/05/10 20:49:26;;;;;;;12.85;7.93;;;;;15.80;96535.00;;;;8333925;28;20532;-75
2022/05/10 20:53:30;;;;;;;9.02;8.05;;;;;15.70;96535.00;;;;8339558;28;20233;-73
2022/05/10 20:57:33;;;;;;;12.60;8.70;;;;;15.70;96541.00;;;;8338293;28;20347;-72
2022/05/10 21:01:37;;;;;;;11.43;8.88;;;;;15.70;96540.00;;;;8338134;28;20231;-72
2022/05/10 21:05:42;;;;;;;12.85;9.07;;;;;15.70;96540.00;;;;8335811;28;20229;-73